sensor_id;sensor_type;location;lat;lon;timestamp;temperature;humidity
10453;DHT22;5274;51.992;8.518;2022-12-17T00:00:43;-5.50;1.00
10453;DHT22;5274;51.992;8.518;2022-12-17T00:03:27;-5.50;1.00
10453;DHT22;5274;51.992;8.518;2022-12-17T00:06:11;-5.60;1.00
10453;DHT22;5274;51.992;8.518;2022-12-17T00:08:55;-5.60;1.00
10453;DHT22;5274;51.992;8.518;2022-12-17T00:11:39;-5.70;1.00
10453;DHT22;5274;51.992;8.518;2022-12-17T00:14:23;-5.80;1.00
10453;DHT22;5274;51.992;8.518;2022-12-17T00:17:07;-5.80;1.00
10453;DHT22;5274;51.992;8.518;2022-12-17T00:19:51;-5.90;1.00
10453;DHT22;5274;51.992;8.518;2022-12-17T00:22:35;-5.90;1.00
10453;DHT22;5274;51.992;8.518;2022-12-17T00:25:19;-5.90;1.00
10453;DHT22;5274;51.992;8.518;2022-12-17T00:28:09;-5.90;1.00
10453;DHT22;5274;51.992;8.518;2022-12-17T00:30:54;-5.90;1.00
10453;DHT22;5274;51.992;8.518;2022-12-17T00:33:38;-5.90;1.00
10453;DHT22;5274;51.992;8.518;2022-12-17T00:36:25;-5.90;1.00
10453;DHT22;5274;51.992;8.518;2022-12-17T00:39:09;-5.90;1.00
10453;DHT22;5274;51.992;8.518;2022-12-17T00:41:58;-5.90;1.00
10453;DHT22;5274;51.992;8.518;2022-12-17T00:44:42;-5.80;1.00
10453;DHT22;5274;51.992;8.518;2022-12-17T00:47:40;-5.80;1.00
10453;DHT22;5274;51.992;8.518;2022-12-17T00:50:24;-5.80;1.00
10453;DHT22;5274;51.992;8.518;2022-12-17T00:53:08;-5.70;1.00
10453;DHT22;5274;51.992;8.518;2022-12-17T00:55:52;-5.60;1.00
10453;DHT22;5274;51.992;8.518;2022-12-17T00:58:36;-5.60;1.00
10453;DHT22;5274;51.992;8.518;2022-12-17T01:01:20;-5.60;1.00
10453;DHT22;5274;51.992;8.518;2022-12-17T01:04:04;-5.50;1.00
10453;DHT22;5274;51.992;8.518;2022-12-17T01:06:48;-5.50;1.00
10453;DHT22;5274;51.992;8.518;2022-12-17T01:09:32;-5.50;1.00
10453;DHT22;5274;51.992;8.518;2022-12-17T01:12:16;-5.50;1.00
10453;DHT22;5274;51.992;8.518;2022-12-17T01:15:00;-5.40;1.00
10453;DHT22;5274;51.992;8.518;2022-12-17T01:17:45;-5.50;1.00
10453;DHT22;5274;51.992;8.518;2022-12-17T01:20:29;-5.50;1.00
10453;DHT22;5274;51.992;8.518;2022-12-17T01:23:13;-5.40;1.00
10453;DHT22;5274;51.992;8.518;2022-12-17T01:25:57;-5.40;1.00
10453;DHT22;5274;51.992;8.518;2022-12-17T01:28:41;-5.30;1.00
10453;DHT22;5274;51.992;8.518;2022-12-17T01:31:26;-5.30;1.00
10453;DHT22;5274;51.992;8.518;2022-12-17T01:34:10;-5.20;1.00
10453;DHT22;5274;51.992;8.518;2022-12-17T01:36:54;-5.30;1.00
10453;DHT22;5274;51.992;8.518;2022-12-17T01:39:38;-5.40;1.00
10453;DHT22;5274;51.992;8.518;2022-12-17T01:42:22;-5.40;1.00
10453;DHT22;5274;51.992;8.518;2022-12-17T01:45:12;-5.50;1.00
10453;DHT22;5274;51.992;8.518;2022-12-17T01:48:00;-5.60;1.00
10453;DHT22;5274;51.992;8.518;2022-12-17T01:50:51;-5.60;1.00
10453;DHT22;5274;51.992;8.518;2022-12-17T01:53:43;-5.60;1.00
10453;DHT22;5274;51.992;8.518;2022-12-17T01:56:30;-5.70;1.00
10453;DHT22;5274;51.992;8.518;2022-12-17T01:59:18;-5.70;1.00
10453;DHT22;5274;51.992;8.518;2022-12-17T02:02:03;-5.80;1.00
10453;DHT22;5274;51.992;8.518;2022-12-17T02:04:47;-5.70;1.00
10453;DHT22;5274;51.992;8.518;2022-12-17T02:07:58;-5.80;1.00
10453;DHT22;5274;51.992;8.518;2022-12-17T02:14:37;-5.70;1.00
10453;DHT22;5274;51.992;8.518;2022-12-17T02:17:24;-5.70;1.00
10453;DHT22;5274;51.992;8.518;2022-12-17T02:23:25;-5.70;1.00
10453;DHT22;5274;51.992;8.518;2022-12-17T02:26:18;-5.90;1.00
10453;DHT22;5274;51.992;8.518;2022-12-17T02:29:05;-6.00;1.00
10453;DHT22;5274;51.992;8.518;2022-12-17T02:31:50;-6.00;1.00
10453;DHT22;5274;51.992;8.518;2022-12-17T02:34:46;-6.10;1.00
10453;DHT22;5274;51.992;8.518;2022-12-17T02:37:30;-6.10;1.00
10453;DHT22;5274;51.992;8.518;2022-12-17T02:40:16;-6.20;1.00
10453;DHT22;5274;51.992;8.518;2022-12-17T02:43:00;-6.20;1.00
10453;DHT22;5274;51.992;8.518;2022-12-17T02:45:45;-6.20;1.00
10453;DHT22;5274;51.992;8.518;2022-12-17T02:48:30;-6.30;1.00
10453;DHT22;5274;51.992;8.518;2022-12-17T02:51:15;-6.20;1.00
10453;DHT22;5274;51.992;8.518;2022-12-17T02:54:02;-6.20;1.00
10453;DHT22;5274;51.992;8.518;2022-12-17T02:56:48;-6.20;1.00
10453;DHT22;5274;51.992;8.518;2022-12-17T02:59:32;-6.20;1.00
10453;DHT22;5274;51.992;8.518;2022-12-17T03:02:16;-6.10;1.00
10453;DHT22;5274;51.992;8.518;2022-12-17T03:05:00;-6.00;1.00
10453;DHT22;5274;51.992;8.518;2022-12-17T03:07:44;-6.00;1.00
10453;DHT22;5274;51.992;8.518;2022-12-17T03:10:29;-6.00;1.00
10453;DHT22;5274;51.992;8.518;2022-12-17T03:13:32;-6.10;1.00
10453;DHT22;5274;51.992;8.518;2022-12-17T03:16:17;-6.10;1.00
10453;DHT22;5274;51.992;8.518;2022-12-17T03:19:01;-6.10;1.00
10453;DHT22;5274;51.992;8.518;2022-12-17T03:21:45;-6.00;1.00
10453;DHT22;5274;51.992;8.518;2022-12-17T03:24:30;-6.00;1.00
10453;DHT22;5274;51.992;8.518;2022-12-17T03:27:14;-6.00;1.00
10453;DHT22;5274;51.992;8.518;2022-12-17T03:30:12;-6.00;1.00
10453;DHT22;5274;51.992;8.518;2022-12-17T03:32:56;-6.00;1.00
10453;DHT22;5274;51.992;8.518;2022-12-17T03:35:40;-6.00;1.00
10453;DHT22;5274;51.992;8.518;2022-12-17T03:38:24;-6.00;1.00
10453;DHT22;5274;51.992;8.518;2022-12-17T03:41:08;-6.00;1.00
10453;DHT22;5274;51.992;8.518;2022-12-17T03:43:52;-6.00;1.00
10453;DHT22;5274;51.992;8.518;2022-12-17T03:46:36;-5.90;1.00
10453;DHT22;5274;51.992;8.518;2022-12-17T03:49:20;-5.80;1.00
10453;DHT22;5274;51.992;8.518;2022-12-17T03:52:05;-5.80;1.00
10453;DHT22;5274;51.992;8.518;2022-12-17T03:54:49;-5.70;1.00
10453;DHT22;5274;51.992;8.518;2022-12-17T03:57:33;-5.70;1.00
10453;DHT22;5274;51.992;8.518;2022-12-17T04:00:17;-5.70;1.00
10453;DHT22;5274;51.992;8.518;2022-12-17T04:03:01;-5.70;1.00
10453;DHT22;5274;51.992;8.518;2022-12-17T04:05:45;-5.70;1.00
10453;DHT22;5274;51.992;8.518;2022-12-17T04:08:29;-5.60;1.00
10453;DHT22;5274;51.992;8.518;2022-12-17T04:11:13;-5.60;1.00
10453;DHT22;5274;51.992;8.518;2022-12-17T04:13:57;-5.50;1.00
10453;DHT22;5274;51.992;8.518;2022-12-17T04:16:41;-5.60;1.00
10453;DHT22;5274;51.992;8.518;2022-12-17T04:19:39;-5.50;1.00
10453;DHT22;5274;51.992;8.518;2022-12-17T04:22:23;-5.40;1.00
10453;DHT22;5274;51.992;8.518;2022-12-17T04:25:07;-5.50;1.00
10453;DHT22;5274;51.992;8.518;2022-12-17T04:27:51;-5.50;1.00
10453;DHT22;5274;51.992;8.518;2022-12-17T04:30:36;-5.50;1.00
10453;DHT22;5274;51.992;8.518;2022-12-17T04:33:19;-5.50;1.00
10453;DHT22;5274;51.992;8.518;2022-12-17T04:36:04;-5.50;1.00
10453;DHT22;5274;51.992;8.518;2022-12-17T04:38:47;-5.50;1.00
10453;DHT22;5274;51.992;8.518;2022-12-17T04:41:31;-5.50;1.00
10453;DHT22;5274;51.992;8.518;2022-12-17T04:44:16;-5.50;1.00
10453;DHT22;5274;51.992;8.518;2022-12-17T04:47:00;-5.50;1.00
10453;DHT22;5274;51.992;8.518;2022-12-17T04:49:44;-5.50;1.00
10453;DHT22;5274;51.992;8.518;2022-12-17T04:52:28;-5.50;1.00
10453;DHT22;5274;51.992;8.518;2022-12-17T04:55:12;-5.50;1.00
10453;DHT22;5274;51.992;8.518;2022-12-17T04:58:04;-5.40;1.00
10453;DHT22;5274;51.992;8.518;2022-12-17T05:00:52;-5.50;1.00
10453;DHT22;5274;51.992;8.518;2022-12-17T05:03:36;-5.50;1.00
10453;DHT22;5274;51.992;8.518;2022-12-17T05:06:20;-5.40;1.00
10453;DHT22;5274;51.992;8.518;2022-12-17T05:09:04;-5.40;1.00
10453;DHT22;5274;51.992;8.518;2022-12-17T05:11:48;-5.50;1.00
10453;DHT22;5274;51.992;8.518;2022-12-17T05:14:32;-5.60;1.00
10453;DHT22;5274;51.992;8.518;2022-12-17T05:17:16;-5.60;1.00
10453;DHT22;5274;51.992;8.518;2022-12-17T05:20:00;-5.60;1.00
10453;DHT22;5274;51.992;8.518;2022-12-17T05:22:44;-5.60;1.00
10453;DHT22;5274;51.992;8.518;2022-12-17T05:25:28;-5.60;1.00
10453;DHT22;5274;51.992;8.518;2022-12-17T05:28:12;-5.60;1.00
10453;DHT22;5274;51.992;8.518;2022-12-17T05:30:56;-5.60;1.00
10453;DHT22;5274;51.992;8.518;2022-12-17T05:33:41;-5.60;1.00
10453;DHT22;5274;51.992;8.518;2022-12-17T05:36:25;-5.50;1.00
10453;DHT22;5274;51.992;8.518;2022-12-17T05:39:09;-5.60;1.00
10453;DHT22;5274;51.992;8.518;2022-12-17T05:41:53;-5.60;1.00
10453;DHT22;5274;51.992;8.518;2022-12-17T05:44:37;-5.60;1.00
10453;DHT22;5274;51.992;8.518;2022-12-17T05:47:21;-5.60;1.00
10453;DHT22;5274;51.992;8.518;2022-12-17T05:50:05;-5.60;1.00
10453;DHT22;5274;51.992;8.518;2022-12-17T05:52:49;-5.60;1.00
10453;DHT22;5274;51.992;8.518;2022-12-17T05:55:33;-5.60;1.00
10453;DHT22;5274;51.992;8.518;2022-12-17T05:58:17;-5.70;1.00
10453;DHT22;5274;51.992;8.518;2022-12-17T06:01:03;-5.60;1.00
10453;DHT22;5274;51.992;8.518;2022-12-17T06:03:58;-5.60;1.00
10453;DHT22;5274;51.992;8.518;2022-12-17T06:06:42;-5.60;1.00
10453;DHT22;5274;51.992;8.518;2022-12-17T06:09:26;-5.60;1.00
10453;DHT22;5274;51.992;8.518;2022-12-17T06:12:11;-5.60;1.00
10453;DHT22;5274;51.992;8.518;2022-12-17T06:14:55;-5.60;1.00
10453;DHT22;5274;51.992;8.518;2022-12-17T06:17:39;-5.60;1.00
10453;DHT22;5274;51.992;8.518;2022-12-17T06:20:23;-5.60;1.00
10453;DHT22;5274;51.992;8.518;2022-12-17T06:23:09;-5.60;1.00
10453;DHT22;5274;51.992;8.518;2022-12-17T06:25:56;-5.60;1.00
10453;DHT22;5274;51.992;8.518;2022-12-17T06:28:41;-5.60;1.00
10453;DHT22;5274;51.992;8.518;2022-12-17T06:31:26;-5.60;1.00
10453;DHT22;5274;51.992;8.518;2022-12-17T06:34:10;-5.60;1.00
10453;DHT22;5274;51.992;8.518;2022-12-17T06:36:54;-5.60;1.00
10453;DHT22;5274;51.992;8.518;2022-12-17T06:39:38;-5.60;1.00
10453;DHT22;5274;51.992;8.518;2022-12-17T06:42:22;-5.60;1.00
10453;DHT22;5274;51.992;8.518;2022-12-17T06:45:07;-5.60;1.00
10453;DHT22;5274;51.992;8.518;2022-12-17T06:47:51;-5.60;1.00
10453;DHT22;5274;51.992;8.518;2022-12-17T06:50:35;-5.60;1.00
10453;DHT22;5274;51.992;8.518;2022-12-17T06:53:19;-5.50;1.00
10453;DHT22;5274;51.992;8.518;2022-12-17T06:56:03;-5.60;1.00
10453;DHT22;5274;51.992;8.518;2022-12-17T06:58:47;-5.60;1.00
10453;DHT22;5274;51.992;8.518;2022-12-17T07:01:31;-5.60;1.00
10453;DHT22;5274;51.992;8.518;2022-12-17T07:04:15;-5.70;1.00
10453;DHT22;5274;51.992;8.518;2022-12-17T07:06:59;-5.70;1.00
10453;DHT22;5274;51.992;8.518;2022-12-17T07:09:44;-5.70;1.00
10453;DHT22;5274;51.992;8.518;2022-12-17T07:12:28;-5.70;1.00
10453;DHT22;5274;51.992;8.518;2022-12-17T07:15:12;-5.70;1.00
10453;DHT22;5274;51.992;8.518;2022-12-17T07:18:03;-5.80;1.00
10453;DHT22;5274;51.992;8.518;2022-12-17T07:20:47;-5.80;1.00
10453;DHT22;5274;51.992;8.518;2022-12-17T07:23:32;-5.80;1.00
10453;DHT22;5274;51.992;8.518;2022-12-17T07:26:16;-5.80;1.00
10453;DHT22;5274;51.992;8.518;2022-12-17T07:29:01;-5.80;1.00
10453;DHT22;5274;51.992;8.518;2022-12-17T07:31:45;-5.90;1.00
10453;DHT22;5274;51.992;8.518;2022-12-17T07:34:29;-5.90;1.00
10453;DHT22;5274;51.992;8.518;2022-12-17T07:37:13;-5.80;1.00
10453;DHT22;5274;51.992;8.518;2022-12-17T07:39:57;-5.90;1.00
10453;DHT22;5274;51.992;8.518;2022-12-17T07:42:41;-5.90;1.00
10453;DHT22;5274;51.992;8.518;2022-12-17T07:45:25;-5.90;1.00
10453;DHT22;5274;51.992;8.518;2022-12-17T07:48:10;-5.80;1.00
10453;DHT22;5274;51.992;8.518;2022-12-17T07:50:54;-5.90;1.00
10453;DHT22;5274;51.992;8.518;2022-12-17T07:53:38;-5.90;1.00
10453;DHT22;5274;51.992;8.518;2022-12-17T07:56:22;-5.80;1.00
10453;DHT22;5274;51.992;8.518;2022-12-17T07:59:06;-5.90;1.00
10453;DHT22;5274;51.992;8.518;2022-12-17T08:01:50;-5.80;1.00
10453;DHT22;5274;51.992;8.518;2022-12-17T08:04:34;-5.80;1.00
10453;DHT22;5274;51.992;8.518;2022-12-17T08:07:19;-5.80;1.00
10453;DHT22;5274;51.992;8.518;2022-12-17T08:10:03;-5.70;1.00
10453;DHT22;5274;51.992;8.518;2022-12-17T08:15:38;-5.80;1.00
10453;DHT22;5274;51.992;8.518;2022-12-17T08:18:22;-5.80;1.00
10453;DHT22;5274;51.992;8.518;2022-12-17T08:21:06;-5.80;1.00
10453;DHT22;5274;51.992;8.518;2022-12-17T08:23:50;-5.80;1.00
10453;DHT22;5274;51.992;8.518;2022-12-17T08:26:34;-5.80;1.00
10453;DHT22;5274;51.992;8.518;2022-12-17T08:29:18;-5.80;1.00
10453;DHT22;5274;51.992;8.518;2022-12-17T08:32:02;-5.80;1.00
10453;DHT22;5274;51.992;8.518;2022-12-17T08:34:46;-5.80;1.00
10453;DHT22;5274;51.992;8.518;2022-12-17T08:37:30;-5.70;1.00
10453;DHT22;5274;51.992;8.518;2022-12-17T08:40:14;-5.60;1.00
10453;DHT22;5274;51.992;8.518;2022-12-17T08:42:58;-5.60;1.00
10453;DHT22;5274;51.992;8.518;2022-12-17T08:45:50;-5.60;1.00
10453;DHT22;5274;51.992;8.518;2022-12-17T08:48:35;-5.60;1.00
10453;DHT22;5274;51.992;8.518;2022-12-17T08:51:20;-5.50;1.00
10453;DHT22;5274;51.992;8.518;2022-12-17T08:54:04;-5.40;1.00
10453;DHT22;5274;51.992;8.518;2022-12-17T08:56:48;-5.40;1.00
10453;DHT22;5274;51.992;8.518;2022-12-17T08:59:32;-5.50;1.00
10453;DHT22;5274;51.992;8.518;2022-12-17T09:02:16;-5.40;1.00
10453;DHT22;5274;51.992;8.518;2022-12-17T09:05:00;-5.40;1.00
10453;DHT22;5274;51.992;8.518;2022-12-17T09:07:44;-5.40;1.00
10453;DHT22;5274;51.992;8.518;2022-12-17T09:10:28;-5.40;1.00
10453;DHT22;5274;51.992;8.518;2022-12-17T09:13:12;-5.40;1.00
10453;DHT22;5274;51.992;8.518;2022-12-17T09:15:56;-5.40;1.00
10453;DHT22;5274;51.992;8.518;2022-12-17T09:18:41;-5.40;1.00
10453;DHT22;5274;51.992;8.518;2022-12-17T09:21:29;-5.40;1.00
10453;DHT22;5274;51.992;8.518;2022-12-17T09:24:14;-5.30;1.00
10453;DHT22;5274;51.992;8.518;2022-12-17T09:26:59;-5.20;1.00
10453;DHT22;5274;51.992;8.518;2022-12-17T09:29:43;-5.20;1.00
10453;DHT22;5274;51.992;8.518;2022-12-17T09:32:27;-5.20;99.90
10453;DHT22;5274;51.992;8.518;2022-12-17T09:35:11;-5.20;99.90
10453;DHT22;5274;51.992;8.518;2022-12-17T09:37:56;-5.20;99.90
10453;DHT22;5274;51.992;8.518;2022-12-17T09:40:44;-5.20;99.90
10453;DHT22;5274;51.992;8.518;2022-12-17T09:43:43;-5.30;99.90
10453;DHT22;5274;51.992;8.518;2022-12-17T09:46:53;-5.20;99.90
10453;DHT22;5274;51.992;8.518;2022-12-17T09:49:40;-5.20;99.90
10453;DHT22;5274;51.992;8.518;2022-12-17T09:52:39;-5.10;1.00
10453;DHT22;5274;51.992;8.518;2022-12-17T09:55:40;-5.00;99.90
10453;DHT22;5274;51.992;8.518;2022-12-17T09:58:28;-4.90;99.90
10453;DHT22;5274;51.992;8.518;2022-12-17T10:01:17;-4.80;1.00
10453;DHT22;5274;51.992;8.518;2022-12-17T10:04:11;-4.70;1.00
10453;DHT22;5274;51.992;8.518;2022-12-17T10:07:13;-4.60;1.00
10453;DHT22;5274;51.992;8.518;2022-12-17T10:10:05;-4.60;99.90
10453;DHT22;5274;51.992;8.518;2022-12-17T10:12:53;-4.60;99.90
10453;DHT22;5274;51.992;8.518;2022-12-17T10:15:40;-4.60;99.90
10453;DHT22;5274;51.992;8.518;2022-12-17T10:18:24;-4.40;99.90
10453;DHT22;5274;51.992;8.518;2022-12-17T10:21:10;-4.30;99.90
10453;DHT22;5274;51.992;8.518;2022-12-17T10:24:05;-4.20;99.90
10453;DHT22;5274;51.992;8.518;2022-12-17T10:26:50;-4.10;99.90
10453;DHT22;5274;51.992;8.518;2022-12-17T10:29:34;-4.30;99.90
10453;DHT22;5274;51.992;8.518;2022-12-17T10:32:23;-4.30;36.10
10453;DHT22;5274;51.992;8.518;2022-12-17T10:35:34;-4.90;99.90
10453;DHT22;5274;51.992;8.518;2022-12-17T10:38:27;-4.70;99.90
10453;DHT22;5274;51.992;8.518;2022-12-17T10:41:24;-4.50;1.00
10453;DHT22;5274;51.992;8.518;2022-12-17T10:47:19;-4.20;1.00
10453;DHT22;5274;51.992;8.518;2022-12-17T10:50:13;-4.10;1.00
10453;DHT22;5274;51.992;8.518;2022-12-17T10:52:57;-4.10;99.90
10453;DHT22;5274;51.992;8.518;2022-12-17T10:55:51;-4.00;1.00
10453;DHT22;5274;51.992;8.518;2022-12-17T10:58:41;-4.00;1.00
10453;DHT22;5274;51.992;8.518;2022-12-17T11:01:26;-3.70;1.00
10453;DHT22;5274;51.992;8.518;2022-12-17T11:04:30;-3.70;99.90
10453;DHT22;5274;51.992;8.518;2022-12-17T11:07:23;-3.90;1.00
10453;DHT22;5274;51.992;8.518;2022-12-17T11:10:15;-3.90;1.00
10453;DHT22;5274;51.992;8.518;2022-12-17T11:13:45;-3.90;99.90
10453;DHT22;5274;51.992;8.518;2022-12-17T11:16:24;-3.80;99.90
10453;DHT22;5274;51.992;8.518;2022-12-17T11:22:05;-3.80;22.00
10453;DHT22;5274;51.992;8.518;2022-12-17T11:25:05;-3.70;99.90
10453;DHT22;5274;51.992;8.518;2022-12-17T11:28:00;-3.70;99.90
10453;DHT22;5274;51.992;8.518;2022-12-17T11:30:53;-3.20;1.00
10453;DHT22;5274;51.992;8.518;2022-12-17T11:33:51;-1.70;99.90
10453;DHT22;5274;51.992;8.518;2022-12-17T11:36:50;0.50;99.90
10453;DHT22;5274;51.992;8.518;2022-12-17T11:39:58;2.00;99.90
10453;DHT22;5274;51.992;8.518;2022-12-17T11:43:20;2.90;99.90
10453;DHT22;5274;51.992;8.518;2022-12-17T11:52:19;4.60;1.00
10453;DHT22;5274;51.992;8.518;2022-12-17T11:55:29;5.00;1.00
10453;DHT22;5274;51.992;8.518;2022-12-17T11:58:39;5.40;1.00
10453;DHT22;5274;51.992;8.518;2022-12-17T12:01:41;6.10;1.00
10453;DHT22;5274;51.992;8.518;2022-12-17T12:04:40;5.80;1.00
10453;DHT22;5274;51.992;8.518;2022-12-17T12:07:37;5.20;1.00
10453;DHT22;5274;51.992;8.518;2022-12-17T12:10:41;5.40;1.00
10453;DHT22;5274;51.992;8.518;2022-12-17T12:13:46;6.30;1.00
10453;DHT22;5274;51.992;8.518;2022-12-17T12:19:54;6.70;1.00
10453;DHT22;5274;51.992;8.518;2022-12-17T12:23:06;5.60;1.00
10453;DHT22;5274;51.992;8.518;2022-12-17T12:26:13;3.90;1.00
10453;DHT22;5274;51.992;8.518;2022-12-17T12:29:38;2.50;1.00
10453;DHT22;5274;51.992;8.518;2022-12-17T12:32:37;1.10;1.00
10453;DHT22;5274;51.992;8.518;2022-12-17T12:35:25;0.00;63.70
10453;DHT22;5274;51.992;8.518;2022-12-17T12:38:19;-0.40;99.90
10453;DHT22;5274;51.992;8.518;2022-12-17T12:41:19;-0.50;1.00
10453;DHT22;5274;51.992;8.518;2022-12-17T12:44:25;-0.60;99.90
10453;DHT22;5274;51.992;8.518;2022-12-17T13:03:24;-1.70;99.90
10453;DHT22;5274;51.992;8.518;2022-12-17T13:06:09;-1.30;99.90
10453;DHT22;5274;51.992;8.518;2022-12-17T13:08:35;-1.50;22.10
10453;DHT22;5274;51.992;8.518;2022-12-17T13:11:27;-1.10;1.00
10453;DHT22;5274;51.992;8.518;2022-12-17T13:13:58;-0.80;1.00
10453;DHT22;5274;51.992;8.518;2022-12-17T13:24:34;4.40;1.00
10453;DHT22;5274;51.992;8.518;2022-12-17T13:27:00;3.30;1.00
10453;DHT22;5274;51.992;8.518;2022-12-17T13:29:33;1.90;1.00
10453;DHT22;5274;51.992;8.518;2022-12-17T13:34:50;0.00;1.00
10453;DHT22;5274;51.992;8.518;2022-12-17T13:37:30;-0.60;1.00
10453;DHT22;5274;51.992;8.518;2022-12-17T13:40:10;-0.90;99.90
10453;DHT22;5274;51.992;8.518;2022-12-17T13:42:38;-1.20;99.90
10453;DHT22;5274;51.992;8.518;2022-12-17T13:45:04;-1.60;1.00
10453;DHT22;5274;51.992;8.518;2022-12-17T13:47:32;-1.70;99.90
10453;DHT22;5274;51.992;8.518;2022-12-17T13:50:01;-1.70;99.90
10453;DHT22;5274;51.992;8.518;2022-12-17T13:52:28;-1.80;99.90
10453;DHT22;5274;51.992;8.518;2022-12-17T13:55:05;-1.90;99.90
10453;DHT22;5274;51.992;8.518;2022-12-17T13:57:31;-2.10;1.00
10453;DHT22;5274;51.992;8.518;2022-12-17T13:59:58;-2.40;1.00
10453;DHT22;5274;51.992;8.518;2022-12-17T14:02:27;-2.50;1.00
10453;DHT22;5274;51.992;8.518;2022-12-17T14:04:55;-2.40;1.00
10453;DHT22;5274;51.992;8.518;2022-12-17T14:07:22;-2.70;99.90
10453;DHT22;5274;51.992;8.518;2022-12-17T14:09:48;-2.70;1.00
10453;DHT22;5274;51.992;8.518;2022-12-17T14:12:14;-3.10;1.00
10453;DHT22;5274;51.992;8.518;2022-12-17T14:15:04;-3.30;99.90
10453;DHT22;5274;51.992;8.518;2022-12-17T14:17:44;-3.40;1.00
10453;DHT22;5274;51.992;8.518;2022-12-17T14:20:17;-3.50;1.00
10453;DHT22;5274;51.992;8.518;2022-12-17T14:22:46;-3.40;1.00
10453;DHT22;5274;51.992;8.518;2022-12-17T14:25:16;-3.40;1.00
10453;DHT22;5274;51.992;8.518;2022-12-17T14:30:32;-3.40;1.00
10453;DHT22;5274;51.992;8.518;2022-12-17T14:33:00;-3.40;1.00
10453;DHT22;5274;51.992;8.518;2022-12-17T14:35:30;-3.50;99.90
10453;DHT22;5274;51.992;8.518;2022-12-17T14:37:58;-3.50;99.90
10453;DHT22;5274;51.992;8.518;2022-12-17T14:40:24;-3.60;99.90
10453;DHT22;5274;51.992;8.518;2022-12-17T14:42:51;-3.70;99.90
10453;DHT22;5274;51.992;8.518;2022-12-17T14:45:26;-3.70;1.00
10453;DHT22;5274;51.992;8.518;2022-12-17T14:48:00;-3.80;1.00
10453;DHT22;5274;51.992;8.518;2022-12-17T14:50:35;-3.90;1.00
10453;DHT22;5274;51.992;8.518;2022-12-17T14:53:03;-4.00;54.60
10453;DHT22;5274;51.992;8.518;2022-12-17T14:55:55;-4.10;99.90
10453;DHT22;5274;51.992;8.518;2022-12-17T14:58:22;-4.20;99.90
10453;DHT22;5274;51.992;8.518;2022-12-17T15:01:06;-4.20;1.00
10453;DHT22;5274;51.992;8.518;2022-12-17T15:03:36;-4.30;1.00
10453;DHT22;5274;51.992;8.518;2022-12-17T15:06:06;-4.40;1.00
10453;DHT22;5274;51.992;8.518;2022-12-17T15:08:34;-4.50;1.00
10453;DHT22;5274;51.992;8.518;2022-12-17T15:11:00;-4.50;1.00
10453;DHT22;5274;51.992;8.518;2022-12-17T15:13:25;-4.60;99.90
10453;DHT22;5274;51.992;8.518;2022-12-17T15:15:51;-4.70;99.90
10453;DHT22;5274;51.992;8.518;2022-12-17T15:18:17;-4.80;99.90
10453;DHT22;5274;51.992;8.518;2022-12-17T15:20:42;-4.80;99.90
10453;DHT22;5274;51.992;8.518;2022-12-17T15:23:15;-4.90;1.00
10453;DHT22;5274;51.992;8.518;2022-12-17T15:25:41;-4.90;1.00
10453;DHT22;5274;51.992;8.518;2022-12-17T15:28:08;-5.00;1.00
10453;DHT22;5274;51.992;8.518;2022-12-17T15:30:33;-5.00;1.00
10453;DHT22;5274;51.992;8.518;2022-12-17T15:32:59;-5.10;30.90
10453;DHT22;5274;51.992;8.518;2022-12-17T15:35:25;-5.10;99.90
10453;DHT22;5274;51.992;8.518;2022-12-17T15:37:50;-5.30;99.90
10453;DHT22;5274;51.992;8.518;2022-12-17T15:40:16;-5.40;22.30
10453;DHT22;5274;51.992;8.518;2022-12-17T15:42:41;-5.40;47.50
10453;DHT22;5274;51.992;8.518;2022-12-17T15:45:25;-5.50;99.90
10453;DHT22;5274;51.992;8.518;2022-12-17T15:47:52;-5.60;99.90
10453;DHT22;5274;51.992;8.518;2022-12-17T15:50:17;-5.60;1.00
10453;DHT22;5274;51.992;8.518;2022-12-17T15:52:43;-5.70;99.90
10453;DHT22;5274;51.992;8.518;2022-12-17T15:55:10;-5.60;1.00
10453;DHT22;5274;51.992;8.518;2022-12-17T15:57:36;-5.70;1.00
10453;DHT22;5274;51.992;8.518;2022-12-17T16:00:01;-5.70;99.90
10453;DHT22;5274;51.992;8.518;2022-12-17T16:02:27;-5.60;99.90
10453;DHT22;5274;51.992;8.518;2022-12-17T16:04:52;-5.70;99.90
10453;DHT22;5274;51.992;8.518;2022-12-17T16:07:18;-5.70;99.90
10453;DHT22;5274;51.992;8.518;2022-12-17T16:09:43;-5.80;99.90
10453;DHT22;5274;51.992;8.518;2022-12-17T16:12:09;-5.90;38.20
10453;DHT22;5274;51.992;8.518;2022-12-17T16:14:34;-5.90;48.30
10453;DHT22;5274;51.992;8.518;2022-12-17T16:17:00;-5.90;99.90
10453;DHT22;5274;51.992;8.518;2022-12-17T16:19:25;-6.00;99.90
10453;DHT22;5274;51.992;8.518;2022-12-17T16:21:51;-6.00;99.90
10453;DHT22;5274;51.992;8.518;2022-12-17T16:24:16;-6.00;1.00
10453;DHT22;5274;51.992;8.518;2022-12-17T16:26:43;-6.00;99.90
10453;DHT22;5274;51.992;8.518;2022-12-17T16:29:08;-5.90;1.00
10453;DHT22;5274;51.992;8.518;2022-12-17T16:31:34;-5.80;99.90
10453;DHT22;5274;51.992;8.518;2022-12-17T16:34:00;-5.70;1.00
10453;DHT22;5274;51.992;8.518;2022-12-17T16:36:25;-5.70;1.00
10453;DHT22;5274;51.992;8.518;2022-12-17T16:38:53;-5.60;1.00
10453;DHT22;5274;51.992;8.518;2022-12-17T16:41:19;-5.60;1.00
10453;DHT22;5274;51.992;8.518;2022-12-17T16:43:46;-5.60;1.00
10453;DHT22;5274;51.992;8.518;2022-12-17T16:46:35;-5.60;1.00
10453;DHT22;5274;51.992;8.518;2022-12-17T16:49:06;-5.70;21.50
10453;DHT22;5274;51.992;8.518;2022-12-17T16:51:32;-5.70;57.10
10453;DHT22;5274;51.992;8.518;2022-12-17T16:53:58;-5.70;99.90
10453;DHT22;5274;51.992;8.518;2022-12-17T16:56:26;-5.70;99.90
10453;DHT22;5274;51.992;8.518;2022-12-17T16:58:53;-5.80;99.90
10453;DHT22;5274;51.992;8.518;2022-12-17T17:01:23;-5.80;99.90
10453;DHT22;5274;51.992;8.518;2022-12-17T17:03:49;-5.80;99.90
10453;DHT22;5274;51.992;8.518;2022-12-17T17:06:17;-5.80;99.90
10453;DHT22;5274;51.992;8.518;2022-12-17T17:08:43;-5.70;99.90
10453;DHT22;5274;51.992;8.518;2022-12-17T17:11:29;-5.70;99.90
10453;DHT22;5274;51.992;8.518;2022-12-17T17:13:54;-5.70;99.90
10453;DHT22;5274;51.992;8.518;2022-12-17T17:16:22;-5.60;99.90
10453;DHT22;5274;51.992;8.518;2022-12-17T17:18:49;-5.60;99.90
10453;DHT22;5274;51.992;8.518;2022-12-17T17:23:43;-5.40;1.00
10453;DHT22;5274;51.992;8.518;2022-12-17T17:26:10;-5.30;1.00
10453;DHT22;5274;51.992;8.518;2022-12-17T17:28:36;-5.40;1.00
10453;DHT22;5274;51.992;8.518;2022-12-17T17:31:04;-5.60;1.00
10453;DHT22;5274;51.992;8.518;2022-12-17T17:33:32;-5.80;1.00
10453;DHT22;5274;51.992;8.518;2022-12-17T17:36:05;-6.00;1.00
10453;DHT22;5274;51.992;8.518;2022-12-17T17:38:35;-6.10;1.00
10453;DHT22;5274;51.992;8.518;2022-12-17T17:41:02;-6.20;99.90
10453;DHT22;5274;51.992;8.518;2022-12-17T17:43:27;-6.40;99.90
10453;DHT22;5274;51.992;8.518;2022-12-17T17:45:53;-6.40;99.90
10453;DHT22;5274;51.992;8.518;2022-12-17T17:48:20;-6.50;99.90
10453;DHT22;5274;51.992;8.518;2022-12-17T17:51:05;-6.40;99.90
10453;DHT22;5274;51.992;8.518;2022-12-17T17:53:31;-6.50;99.90
10453;DHT22;5274;51.992;8.518;2022-12-17T17:56:09;-6.60;99.90
10453;DHT22;5274;51.992;8.518;2022-12-17T17:58:46;-6.60;99.90
10453;DHT22;5274;51.992;8.518;2022-12-17T18:01:15;-6.60;99.90
10453;DHT22;5274;51.992;8.518;2022-12-17T18:03:41;-6.50;99.90
10453;DHT22;5274;51.992;8.518;2022-12-17T18:06:09;-6.40;99.90
10453;DHT22;5274;51.992;8.518;2022-12-17T18:08:35;-6.30;99.90
10453;DHT22;5274;51.992;8.518;2022-12-17T18:11:03;-6.30;99.90
10453;DHT22;5274;51.992;8.518;2022-12-17T18:13:29;-6.20;99.90
10453;DHT22;5274;51.992;8.518;2022-12-17T18:16:13;-6.00;99.90
10453;DHT22;5274;51.992;8.518;2022-12-17T18:18:39;-6.00;99.90
10453;DHT22;5274;51.992;8.518;2022-12-17T18:21:08;-6.00;99.90
10453;DHT22;5274;51.992;8.518;2022-12-17T18:23:34;-6.00;99.90
10453;DHT22;5274;51.992;8.518;2022-12-17T18:26:07;-5.90;1.00
10453;DHT22;5274;51.992;8.518;2022-12-17T18:28:33;-5.80;1.00